sensor_id;sensor_type;location;lat;lon;timestamp;pressure;altitude;pressure_sealevel;temperature;humidity
7768;BME280;3928;42.626;23.382;2022-12-10T00:02:09;93548.91;;;10.88;97.96
7768;BME280;3928;42.626;23.382;2022-12-10T00:04:37;93547.97;;;10.92;97.73
7768;BME280;3928;42.626;23.382;2022-12-10T00:07:04;93527.09;;;11.02;96.80
7768;BME280;3928;42.626;23.382;2022-12-10T00:09:30;93531.09;;;11.11;96.30
7768;BME280;3928;42.626;23.382;2022-12-10T00:11:58;93517.91;;;11.22;96.29
7768;BME280;3928;42.626;23.382;2022-12-10T00:14:24;93532.22;;;11.02;96.35
7768;BME280;3928;42.626;23.382;2022-12-10T00:16:51;93504.28;;;10.93;97.30
7768;BME280;3928;42.626;23.382;2022-12-10T00:19:18;93504.06;;;10.99;97.29
7768;BME280;3928;42.626;23.382;2022-12-10T00:21:46;93474.81;;;11.05;95.69
7768;BME280;3928;42.626;23.382;2022-12-10T00:24:13;93519.78;;;11.17;95.91
7768;BME280;3928;42.626;23.382;2022-12-10T00:26:40;93516.97;;;11.24;95.60
7768;BME280;3928;42.626;23.382;2022-12-10T00:29:09;93494.78;;;10.95;96.53
7768;BME280;3928;42.626;23.382;2022-12-10T00:31:38;93516.06;;;10.99;97.38
7768;BME280;3928;42.626;23.382;2022-12-10T00:34:06;93507.47;;;11.00;96.99
7768;BME280;3928;42.626;23.382;2022-12-10T00:36:34;93522.03;;;10.99;96.65
7768;BME280;3928;42.626;23.382;2022-12-10T00:39:03;93526.28;;;11.00;97.77
7768;BME280;3928;42.626;23.382;2022-12-10T00:41:31;93522.50;;;11.12;97.15
7768;BME280;3928;42.626;23.382;2022-12-10T00:43:57;93526.72;;;11.15;96.72
7768;BME280;3928;42.626;23.382;2022-12-10T00:46:25;93528.38;;;11.16;96.39
7768;BME280;3928;42.626;23.382;2022-12-10T00:48:52;93517.03;;;11.23;96.47
7768;BME280;3928;42.626;23.382;2022-12-10T00:51:21;93498.75;;;11.32;95.57
7768;BME280;3928;42.626;23.382;2022-12-10T00:53:49;93528.41;;;11.42;94.87
7768;BME280;3928;42.626;23.382;2022-12-10T00:56:19;93533.25;;;11.25;96.08
7768;BME280;3928;42.626;23.382;2022-12-10T00:58:48;93513.31;;;11.31;95.93
7768;BME280;3928;42.626;23.382;2022-12-10T01:01:17;93531.00;;;11.14;96.35
7768;BME280;3928;42.626;23.382;2022-12-10T01:03:45;93516.06;;;11.27;96.47
7768;BME280;3928;42.626;23.382;2022-12-10T01:06:14;93524.09;;;10.88;98.27
7768;BME280;3928;42.626;23.382;2022-12-10T01:08:42;93538.94;;;11.06;97.72
7768;BME280;3928;42.626;23.382;2022-12-10T01:11:10;93518.50;;;11.03;98.12
7768;BME280;3928;42.626;23.382;2022-12-10T01:13:39;93511.31;;;11.15;97.76
7768;BME280;3928;42.626;23.382;2022-12-10T01:16:08;93521.81;;;11.07;97.28
7768;BME280;3928;42.626;23.382;2022-12-10T01:18:35;93521.25;;;11.24;97.12
7768;BME280;3928;42.626;23.382;2022-12-10T01:21:03;93459.91;;;10.90;97.18
7768;BME280;3928;42.626;23.382;2022-12-10T01:23:32;93517.44;;;11.37;96.43
7768;BME280;3928;42.626;23.382;2022-12-10T01:26:00;93467.16;;;11.03;96.41
7768;BME280;3928;42.626;23.382;2022-12-10T01:28:30;93498.75;;;11.32;96.64
7768;BME280;3928;42.626;23.382;2022-12-10T01:31:03;93488.97;;;11.43;96.12
7768;BME280;3928;42.626;23.382;2022-12-10T01:33:31;93493.59;;;11.58;95.37
7768;BME280;3928;42.626;23.382;2022-12-10T01:36:02;93487.38;;;11.65;94.86
7768;BME280;3928;42.626;23.382;2022-12-10T01:38:29;93493.47;;;11.88;94.27
7768;BME280;3928;42.626;23.382;2022-12-10T01:40:56;93487.06;;;11.99;93.55
7768;BME280;3928;42.626;23.382;2022-12-10T01:43:22;93496.69;;;12.18;92.55
7768;BME280;3928;42.626;23.382;2022-12-10T01:45:49;93498.56;;;12.38;91.02
7768;BME280;3928;42.626;23.382;2022-12-10T01:48:17;93469.94;;;12.47;90.07
7768;BME280;3928;42.626;23.382;2022-12-10T01:50:44;93495.03;;;12.85;88.26
7768;BME280;3928;42.626;23.382;2022-12-10T01:53:12;93482.25;;;13.06;87.31
7768;BME280;3928;42.626;23.382;2022-12-10T01:55:43;93480.91;;;13.17;85.86
7768;BME280;3928;42.626;23.382;2022-12-10T01:58:11;93492.09;;;13.40;84.85
7768;BME280;3928;42.626;23.382;2022-12-10T02:00:45;93488.16;;;13.72;83.23
7768;BME280;3928;42.626;23.382;2022-12-10T02:03:19;93470.38;;;13.86;81.70
7768;BME280;3928;42.626;23.382;2022-12-10T02:05:53;93491.34;;;14.18;80.43
7768;BME280;3928;42.626;23.382;2022-12-10T02:08:26;93488.41;;;14.07;80.47
7768;BME280;3928;42.626;23.382;2022-12-10T02:11:00;93516.69;;;14.10;80.51
7768;BME280;3928;42.626;23.382;2022-12-10T02:13:38;93484.81;;;14.11;80.65
7768;BME280;3928;42.626;23.382;2022-12-10T02:16:11;93499.63;;;14.26;79.62
7768;BME280;3928;42.626;23.382;2022-12-10T02:18:45;93494.53;;;14.45;78.33
7768;BME280;3928;42.626;23.382;2022-12-10T02:21:18;93491.88;;;14.65;78.17
7768;BME280;3928;42.626;23.382;2022-12-10T02:23:51;93481.00;;;14.58;77.50
7768;BME280;3928;42.626;23.382;2022-12-10T02:26:23;93499.06;;;14.58;78.25
7768;BME280;3928;42.626;23.382;2022-12-10T02:31:26;93469.66;;;13.83;81.36
7768;BME280;3928;42.626;23.382;2022-12-10T02:33:58;93479.03;;;13.85;81.82
7768;BME280;3928;42.626;23.382;2022-12-10T02:36:29;93466.28;;;13.62;83.04
7768;BME280;3928;42.626;23.382;2022-12-10T02:39:01;93452.00;;;13.53;83.19
7768;BME280;3928;42.626;23.382;2022-12-10T02:41:32;93470.44;;;13.64;83.44
7768;BME280;3928;42.626;23.382;2022-12-10T02:44:04;93466.19;;;13.84;82.55
7768;BME280;3928;42.626;23.382;2022-12-10T02:46:34;93463.50;;;14.05;82.29
7768;BME280;3928;42.626;23.382;2022-12-10T02:49:04;93460.63;;;14.32;80.36
7768;BME280;3928;42.626;23.382;2022-12-10T02:51:34;93459.84;;;14.50;79.65
7768;BME280;3928;42.626;23.382;2022-12-10T02:54:02;93453.84;;;14.69;78.44
7768;BME280;3928;42.626;23.382;2022-12-10T02:56:33;93459.28;;;14.62;77.20
7768;BME280;3928;42.626;23.382;2022-12-10T02:59:07;93467.22;;;14.77;76.87
7768;BME280;3928;42.626;23.382;2022-12-10T03:01:46;93467.22;;;14.96;76.01
7768;BME280;3928;42.626;23.382;2022-12-10T03:04:21;93476.50;;;15.00;76.02
7768;BME280;3928;42.626;23.382;2022-12-10T03:06:52;93484.47;;;14.95;76.10
7768;BME280;3928;42.626;23.382;2022-12-10T03:09:22;93469.50;;;15.02;75.33
7768;BME280;3928;42.626;23.382;2022-12-10T03:11:56;93460.06;;;15.19;75.76
7768;BME280;3928;42.626;23.382;2022-12-10T03:14:28;93459.94;;;15.40;75.65
7768;BME280;3928;42.626;23.382;2022-12-10T03:16:59;93458.25;;;15.39;75.73
7768;BME280;3928;42.626;23.382;2022-12-10T03:19:29;93461.06;;;15.17;76.04
7768;BME280;3928;42.626;23.382;2022-12-10T03:21:59;93451.72;;;14.96;76.93
7768;BME280;3928;42.626;23.382;2022-12-10T03:24:28;93482.22;;;15.06;76.71
7768;BME280;3928;42.626;23.382;2022-12-10T03:26:57;93438.56;;;14.83;77.05
7768;BME280;3928;42.626;23.382;2022-12-10T03:29:27;93465.63;;;14.93;77.59
7768;BME280;3928;42.626;23.382;2022-12-10T03:31:58;93451.50;;;15.00;77.39
7768;BME280;3928;42.626;23.382;2022-12-10T03:34:26;93453.31;;;14.98;76.51
7768;BME280;3928;42.626;23.382;2022-12-10T03:36:54;93438.13;;;14.92;77.18
7768;BME280;3928;42.626;23.382;2022-12-10T03:39:22;93471.13;;;15.04;76.50
7768;BME280;3928;42.626;23.382;2022-12-10T03:41:49;93432.88;;;14.94;75.94
7768;BME280;3928;42.626;23.382;2022-12-10T03:44:27;93441.72;;;15.07;75.66
7768;BME280;3928;42.626;23.382;2022-12-10T03:46:55;93446.06;;;15.06;75.74
7768;BME280;3928;42.626;23.382;2022-12-10T03:49:24;93456.31;;;15.08;75.27
7768;BME280;3928;42.626;23.382;2022-12-10T03:51:51;93443.31;;;15.27;74.43
7768;BME280;3928;42.626;23.382;2022-12-10T03:54:18;93445.16;;;15.25;74.41
7768;BME280;3928;42.626;23.382;2022-12-10T03:56:45;93445.31;;;15.21;74.72
7768;BME280;3928;42.626;23.382;2022-12-10T03:59:12;93443.63;;;15.20;74.16
7768;BME280;3928;42.626;23.382;2022-12-10T04:01:39;93456.66;;;15.00;75.10
7768;BME280;3928;42.626;23.382;2022-12-10T04:04:07;93424.94;;;15.15;74.37
7768;BME280;3928;42.626;23.382;2022-12-10T04:06:37;93429.38;;;15.31;73.76
7768;BME280;3928;42.626;23.382;2022-12-10T04:09:04;93417.94;;;15.17;74.40
7768;BME280;3928;42.626;23.382;2022-12-10T04:11:31;93394.38;;;15.06;74.75
7768;BME280;3928;42.626;23.382;2022-12-10T04:13:58;93419.31;;;15.25;74.56
7768;BME280;3928;42.626;23.382;2022-12-10T04:16:42;93403.28;;;15.18;74.81
7768;BME280;3928;42.626;23.382;2022-12-10T04:19:11;93420.22;;;15.06;75.37
7768;BME280;3928;42.626;23.382;2022-12-10T04:21:40;93421.13;;;15.23;74.90
7768;BME280;3928;42.626;23.382;2022-12-10T04:24:27;93403.78;;;15.25;74.45
7768;BME280;3928;42.626;23.382;2022-12-10T04:27:16;93400.16;;;15.11;74.85
7768;BME280;3928;42.626;23.382;2022-12-10T04:29:44;93420.84;;;15.29;74.80
7768;BME280;3928;42.626;23.382;2022-12-10T04:32:11;93412.56;;;15.39;73.89
7768;BME280;3928;42.626;23.382;2022-12-10T04:34:38;93432.53;;;15.36;73.96
7768;BME280;3928;42.626;23.382;2022-12-10T04:37:07;93412.19;;;15.30;73.88
7768;BME280;3928;42.626;23.382;2022-12-10T04:39:34;93441.06;;;15.38;74.20
7768;BME280;3928;42.626;23.382;2022-12-10T04:42:00;93444.97;;;15.10;76.68
7768;BME280;3928;42.626;23.382;2022-12-10T04:44:27;93466.16;;;14.04;82.21
7768;BME280;3928;42.626;23.382;2022-12-10T04:46:54;93437.88;;;13.82;83.25
7768;BME280;3928;42.626;23.382;2022-12-10T04:49:22;93474.53;;;13.48;86.63
7768;BME280;3928;42.626;23.382;2022-12-10T04:51:49;93435.19;;;13.02;88.81
7768;BME280;3928;42.626;23.382;2022-12-10T04:54:19;93466.09;;;13.02;90.96
7768;BME280;3928;42.626;23.382;2022-12-10T04:56:47;93476.84;;;12.90;92.02
7768;BME280;3928;42.626;23.382;2022-12-10T04:59:14;93460.31;;;12.96;92.06
7768;BME280;3928;42.626;23.382;2022-12-10T05:01:41;93457.31;;;12.84;92.75
7768;BME280;3928;42.626;23.382;2022-12-10T05:04:11;93446.13;;;12.85;92.62
7768;BME280;3928;42.626;23.382;2022-12-10T05:06:39;93456.63;;;13.03;92.04
7768;BME280;3928;42.626;23.382;2022-12-10T05:09:06;93444.75;;;12.99;91.86
7768;BME280;3928;42.626;23.382;2022-12-10T05:11:35;93463.66;;;12.98;92.75
7768;BME280;3928;42.626;23.382;2022-12-10T05:14:02;93453.44;;;12.96;92.85
7768;BME280;3928;42.626;23.382;2022-12-10T05:16:31;93442.00;;;13.03;92.53
7768;BME280;3928;42.626;23.382;2022-12-10T05:18:58;93415.56;;;12.98;91.77
7768;BME280;3928;42.626;23.382;2022-12-10T05:21:27;93441.25;;;13.00;92.62
7768;BME280;3928;42.626;23.382;2022-12-10T05:24:14;93433.72;;;12.95;93.07
7768;BME280;3928;42.626;23.382;2022-12-10T05:26:42;93429.16;;;13.02;93.31
7768;BME280;3928;42.626;23.382;2022-12-10T05:29:09;93390.75;;;12.75;93.38
7768;BME280;3928;42.626;23.382;2022-12-10T05:31:36;93428.81;;;12.89;94.18
7768;BME280;3928;42.626;23.382;2022-12-10T05:34:03;93437.06;;;12.97;93.77
7768;BME280;3928;42.626;23.382;2022-12-10T05:36:31;93432.66;;;12.57;96.13
7768;BME280;3928;42.626;23.382;2022-12-10T05:38:58;93450.31;;;12.43;97.83
7768;BME280;3928;42.626;23.382;2022-12-10T05:41:27;93438.03;;;12.51;97.87
7768;BME280;3928;42.626;23.382;2022-12-10T05:43:57;93440.59;;;12.51;97.18
7768;BME280;3928;42.626;23.382;2022-12-10T05:46:26;93431.44;;;12.44;97.26
7768;BME280;3928;42.626;23.382;2022-12-10T05:48:54;93424.59;;;12.43;97.31
7768;BME280;3928;42.626;23.382;2022-12-10T05:51:23;93445.22;;;12.65;97.43
7768;BME280;3928;42.626;23.382;2022-12-10T05:53:50;93442.34;;;12.72;96.49
7768;BME280;3928;42.626;23.382;2022-12-10T05:56:19;93461.50;;;12.65;96.90
7768;BME280;3928;42.626;23.382;2022-12-10T05:58:48;93404.72;;;12.24;97.88
7768;BME280;3928;42.626;23.382;2022-12-10T06:01:18;93456.47;;;12.62;97.68
7768;BME280;3928;42.626;23.382;2022-12-10T06:03:46;93476.88;;;12.21;100.00
7768;BME280;3928;42.626;23.382;2022-12-10T06:06:13;93460.47;;;12.24;100.00
7768;BME280;3928;42.626;23.382;2022-12-10T06:08:40;93446.47;;;12.31;100.00
7768;BME280;3928;42.626;23.382;2022-12-10T06:11:10;93473.59;;;12.16;100.00
7768;BME280;3928;42.626;23.382;2022-12-10T06:13:37;93457.56;;;12.10;100.00
7768;BME280;3928;42.626;23.382;2022-12-10T06:16:05;93454.94;;;12.11;100.00
7768;BME280;3928;42.626;23.382;2022-12-10T06:18:34;93462.81;;;12.07;100.00
7768;BME280;3928;42.626;23.382;2022-12-10T06:21:02;93453.47;;;12.04;100.00
7768;BME280;3928;42.626;23.382;2022-12-10T06:23:30;93464.91;;;12.20;100.00
7768;BME280;3928;42.626;23.382;2022-12-10T06:25:57;93448.91;;;12.36;100.00
7768;BME280;3928;42.626;23.382;2022-12-10T06:28:23;93469.47;;;12.36;100.00
7768;BME280;3928;42.626;23.382;2022-12-10T06:30:50;93446.41;;;12.56;100.00
7768;BME280;3928;42.626;23.382;2022-12-10T06:33:17;93470.19;;;12.63;100.00
7768;BME280;3928;42.626;23.382;2022-12-10T06:35:45;93466.63;;;12.43;100.00
7768;BME280;3928;42.626;23.382;2022-12-10T06:38:12;93451.44;;;12.59;100.00
7768;BME280;3928;42.626;23.382;2022-12-10T06:40:39;93445.63;;;12.54;100.00
7768;BME280;3928;42.626;23.382;2022-12-10T06:43:06;93437.41;;;12.68;100.00
7768;BME280;3928;42.626;23.382;2022-12-10T06:45:33;93421.53;;;12.56;100.00
7768;BME280;3928;42.626;23.382;2022-12-10T06:47:59;93454.09;;;12.34;100.00
7768;BME280;3928;42.626;23.382;2022-12-10T06:50:26;93442.97;;;12.34;100.00
7768;BME280;3928;42.626;23.382;2022-12-10T06:52:54;93446.19;;;12.39;100.00
7768;BME280;3928;42.626;23.382;2022-12-10T06:55:21;93452.56;;;12.52;100.00
7768;BME280;3928;42.626;23.382;2022-12-10T06:57:50;93461.75;;;12.59;100.00
7768;BME280;3928;42.626;23.382;2022-12-10T07:00:17;93456.34;;;12.65;100.00
7768;BME280;3928;42.626;23.382;2022-12-10T07:02:45;93448.56;;;12.67;100.00
7768;BME280;3928;42.626;23.382;2022-12-10T07:05:11;93463.72;;;12.74;100.00
7768;BME280;3928;42.626;23.382;2022-12-10T07:07:38;93466.28;;;12.74;100.00
7768;BME280;3928;42.626;23.382;2022-12-10T07:10:07;93477.38;;;12.76;100.00
7768;BME280;3928;42.626;23.382;2022-12-10T07:12:36;93466.56;;;12.67;100.00
7768;BME280;3928;42.626;23.382;2022-12-10T07:15:04;93469.34;;;12.62;100.00
7768;BME280;3928;42.626;23.382;2022-12-10T07:17:32;93465.72;;;12.68;100.00
7768;BME280;3928;42.626;23.382;2022-12-10T07:20:01;93455.75;;;12.58;100.00
7768;BME280;3928;42.626;23.382;2022-12-10T07:22:28;93476.31;;;12.37;100.00
7768;BME280;3928;42.626;23.382;2022-12-10T07:24:54;93440.66;;;12.49;100.00
7768;BME280;3928;42.626;23.382;2022-12-10T07:27:23;93441.75;;;12.44;100.00
7768;BME280;3928;42.626;23.382;2022-12-10T07:29:49;93445.31;;;12.16;100.00
7768;BME280;3928;42.626;23.382;2022-12-10T07:32:17;93422.50;;;12.30;100.00
7768;BME280;3928;42.626;23.382;2022-12-10T07:34:44;93430.06;;;12.35;100.00
7768;BME280;3928;42.626;23.382;2022-12-10T07:37:10;93439.78;;;12.27;100.00
7768;BME280;3928;42.626;23.382;2022-12-10T07:39:37;93433.22;;;11.70;100.00
7768;BME280;3928;42.626;23.382;2022-12-10T07:42:04;93420.81;;;12.06;100.00
7768;BME280;3928;42.626;23.382;2022-12-10T07:44:32;93437.59;;;11.93;100.00
7768;BME280;3928;42.626;23.382;2022-12-10T07:46:59;93431.22;;;12.03;100.00
7768;BME280;3928;42.626;23.382;2022-12-10T07:49:26;93446.22;;;12.15;100.00
7768;BME280;3928;42.626;23.382;2022-12-10T07:51:53;93442.22;;;12.30;100.00
7768;BME280;3928;42.626;23.382;2022-12-10T07:54:20;93445.31;;;12.40;100.00
7768;BME280;3928;42.626;23.382;2022-12-10T07:56:46;93434.03;;;12.44;100.00
7768;BME280;3928;42.626;23.382;2022-12-10T07:59:13;93428.50;;;12.53;100.00
7768;BME280;3928;42.626;23.382;2022-12-10T08:01:41;93418.63;;;12.64;100.00
7768;BME280;3928;42.626;23.382;2022-12-10T08:04:08;93415.59;;;12.76;100.00
7768;BME280;3928;42.626;23.382;2022-12-10T08:06:35;93412.72;;;12.84;100.00
7768;BME280;3928;42.626;23.382;2022-12-10T08:09:02;93421.28;;;12.84;100.00
7768;BME280;3928;42.626;23.382;2022-12-10T08:11:29;93421.41;;;12.81;100.00
7768;BME280;3928;42.626;23.382;2022-12-10T08:13:56;93421.00;;;12.92;100.00
7768;BME280;3928;42.626;23.382;2022-12-10T08:16:24;93412.09;;;12.99;100.00
7768;BME280;3928;42.626;23.382;2022-12-10T08:18:54;93413.22;;;13.14;100.00
7768;BME280;3928;42.626;23.382;2022-12-10T08:21:22;93410.19;;;13.26;100.00
7768;BME280;3928;42.626;23.382;2022-12-10T08:23:49;93409.72;;;13.37;100.00
7768;BME280;3928;42.626;23.382;2022-12-10T08:26:18;93402.13;;;13.34;100.00
7768;BME280;3928;42.626;23.382;2022-12-10T08:28:46;93385.97;;;13.30;100.00
7768;BME280;3928;42.626;23.382;2022-12-10T08:31:14;93398.72;;;13.33;100.00
7768;BME280;3928;42.626;23.382;2022-12-10T08:33:41;93395.09;;;13.37;100.00
7768;BME280;3928;42.626;23.382;2022-12-10T08:36:12;93420.75;;;13.40;100.00
7768;BME280;3928;42.626;23.382;2022-12-10T08:38:39;93419.84;;;13.21;100.00
7768;BME280;3928;42.626;23.382;2022-12-10T08:41:07;93354.16;;;13.09;100.00
7768;BME280;3928;42.626;23.382;2022-12-10T08:43:34;93364.66;;;13.27;100.00
7768;BME280;3928;42.626;23.382;2022-12-10T08:46:01;93374.75;;;13.52;100.00
7768;BME280;3928;42.626;23.382;2022-12-10T08:48:28;93377.72;;;13.63;99.65
7768;BME280;3928;42.626;23.382;2022-12-10T08:50:55;93362.78;;;13.69;99.06
7768;BME280;3928;42.626;23.382;2022-12-10T08:53:23;93365.81;;;13.79;99.36
7768;BME280;3928;42.626;23.382;2022-12-10T08:55:51;93359.28;;;13.91;99.21
7768;BME280;3928;42.626;23.382;2022-12-10T08:58:18;93356.78;;;13.89;97.80
7768;BME280;3928;42.626;23.382;2022-12-10T09:00:45;93372.25;;;13.89;98.38
7768;BME280;3928;42.626;23.382;2022-12-10T09:03:12;93346.84;;;13.80;98.42
7768;BME280;3928;42.626;23.382;2022-12-10T09:05:39;93375.16;;;13.82;98.78
7768;BME280;3928;42.626;23.382;2022-12-10T09:08:06;93390.06;;;13.75;99.33
7768;BME280;3928;42.626;23.382;2022-12-10T09:10:35;93345.88;;;13.83;100.00
7768;BME280;3928;42.626;23.382;2022-12-10T09:13:02;93354.22;;;13.69;100.00
7768;BME280;3928;42.626;23.382;2022-12-10T09:15:29;93337.22;;;13.65;100.00
7768;BME280;3928;42.626;23.382;2022-12-10T09:17:56;93346.19;;;13.56;100.00
7768;BME280;3928;42.626;23.382;2022-12-10T09:20:23;93363.66;;;13.50;100.00
7768;BME280;3928;42.626;23.382;2022-12-10T09:22:50;93315.88;;;13.42;100.00
7768;BME280;3928;42.626;23.382;2022-12-10T09:25:17;93337.75;;;13.53;100.00
7768;BME280;3928;42.626;23.382;2022-12-10T09:27:48;93363.34;;;13.57;100.00
7768;BME280;3928;42.626;23.382;2022-12-10T09:30:15;93341.66;;;13.61;100.00
7768;BME280;3928;42.626;23.382;2022-12-10T09:32:42;93341.19;;;13.72;100.00
7768;BME280;3928;42.626;23.382;2022-12-10T09:35:09;93323.13;;;13.72;100.00
7768;BME280;3928;42.626;23.382;2022-12-10T09:37:36;93331.09;;;13.67;100.00
7768;BME280;3928;42.626;23.382;2022-12-10T09:40:03;93321.75;;;13.65;100.00
7768;BME280;3928;42.626;23.382;2022-12-10T09:42:38;93320.09;;;13.64;100.00
7768;BME280;3928;42.626;23.382;2022-12-10T09:45:16;93325.84;;;13.50;100.00
7768;BME280;3928;42.626;23.382;2022-12-10T09:47:49;93299.47;;;13.64;100.00
7768;BME280;3928;42.626;23.382;2022-12-10T09:50:21;93316.97;;;13.76;100.00
7768;BME280;3928;42.626;23.382;2022-12-10T09:52:51;93317.19;;;13.90;100.00
7768;BME280;3928;42.626;23.382;2022-12-10T09:55:32;93310.63;;;14.02;100.00
7768;BME280;3928;42.626;23.382;2022-12-10T09:58:02;93288.84;;;14.08;100.00
7768;BME280;3928;42.626;23.382;2022-12-10T10:00:35;93305.25;;;14.07;98.65
7768;BME280;3928;42.626;23.382;2022-12-10T10:03:03;93312.94;;;13.89;100.00
7768;BME280;3928;42.626;23.382;2022-12-10T10:05:35;93301.47;;;13.95;100.00
7768;BME280;3928;42.626;23.382;2022-12-10T10:08:04;93290.97;;;13.99;100.00
7768;BME280;3928;42.626;23.382;2022-12-10T10:10:33;93285.69;;;14.20;100.00
7768;BME280;3928;42.626;23.382;2022-12-10T10:13:11;93292.09;;;14.30;99.08
7768;BME280;3928;42.626;23.382;2022-12-10T10:15:43;93274.59;;;14.37;99.60
7768;BME280;3928;42.626;23.382;2022-12-10T10:18:16;93297.06;;;14.53;99.10
7768;BME280;3928;42.626;23.382;2022-12-10T10:20:45;93292.22;;;14.65;99.38
7768;BME280;3928;42.626;23.382;2022-12-10T10:23:14;93307.56;;;14.85;97.65
7768;BME280;3928;42.626;23.382;2022-12-10T10:25:41;93300.34;;;14.74;96.82
7768;BME280;3928;42.626;23.382;2022-12-10T10:28:11;93272.19;;;14.70;96.19
7768;BME280;3928;42.626;23.382;2022-12-10T10:30:41;93269.59;;;14.87;97.03
7768;BME280;3928;42.626;23.382;2022-12-10T10:33:10;93268.75;;;14.86;96.53
7768;BME280;3928;42.626;23.382;2022-12-10T10:35:43;93286.59;;;14.91;96.08
7768;BME280;3928;42.626;23.382;2022-12-10T10:38:16;93272.19;;;14.70;96.14
7768;BME280;3928;42.626;23.382;2022-12-10T10:40:46;93272.50;;;14.81;95.95
7768;BME280;3928;42.626;23.382;2022-12-10T10:43:18;93259.88;;;14.75;96.39
7768;BME280;3928;42.626;23.382;2022-12-10T10:45:51;93243.97;;;15.00;95.60
7768;BME280;3928;42.626;23.382;2022-12-10T10:48:19;93230.31;;;14.98;94.66
7768;BME280;3928;42.626;23.382;2022-12-10T10:50:48;93230.88;;;15.20;94.81
7768;BME280;3928;42.626;23.382;2022-12-10T10:53:27;93254.94;;;15.38;93.21
7768;BME280;3928;42.626;23.382;2022-12-10T10:55:58;93272.63;;;15.45;89.96
7768;BME280;3928;42.626;23.382;2022-12-10T10:58:25;93240.59;;;15.65;88.19
7768;BME280;3928;42.626;23.382;2022-12-10T11:01:00;93204.47;;;15.79;89.05
7768;BME280;3928;42.626;23.382;2022-12-10T11:03:28;93236.69;;;15.90;87.32
7768;BME280;3928;42.626;23.382;2022-12-10T11:05:57;93227.84;;;15.94;87.16
7768;BME280;3928;42.626;23.382;2022-12-10T11:08:35;93205.72;;;15.72;86.65
7768;BME280;3928;42.626;23.382;2022-12-10T11:11:05;93179.28;;;15.83;86.80
7768;BME280;3928;42.626;23.382;2022-12-10T11:13:34;93218.16;;;16.13;85.23
7768;BME280;3928;42.626;23.382;2022-12-10T11:16:11;93233.19;;;15.91;87.30
7768;BME280;3928;42.626;23.382;2022-12-10T11:18:41;93198.81;;;15.89;88.46
7768;BME280;3928;42.626;23.382;2022-12-10T11:21:17;93183.59;;;16.14;89.69
7768;BME280;3928;42.626;23.382;2022-12-10T11:23:47;93181.06;;;16.28;90.23
7768;BME280;3928;42.626;23.382;2022-12-10T11:26:30;93175.09;;;16.12;90.14
7768;BME280;3928;42.626;23.382;2022-12-10T11:29:07;93167.09;;;16.31;90.13
7768;BME280;3928;42.626;23.382;2022-12-10T11:31:51;93178.19;;;16.49;89.44
7768;BME280;3928;42.626;23.382;2022-12-10T11:34:32;93167.66;;;16.66;88.99
7768;BME280;3928;42.626;23.382;2022-12-10T11:37:10;93176.25;;;16.82;88.58
7768;BME280;3928;42.626;23.382;2022-12-10T11:39:56;93186.22;;;16.74;88.16
7768;BME280;3928;42.626;23.382;2022-12-10T11:42:29;93171.78;;;16.70;88.81
7768;BME280;3928;42.626;23.382;2022-12-10T11:45:07;93157.25;;;16.67;91.31
7768;BME280;3928;42.626;23.382;2022-12-10T11:47:52;93186.78;;;16.79;89.74
7768;BME280;3928;42.626;23.382;2022-12-10T11:50:26;93173.72;;;16.81;91.11
7768;BME280;3928;42.626;23.382;2022-12-10T11:53:09;93166.25;;;16.90;89.70
7768;BME280;3928;42.626;23.382;2022-12-10T11:55:49;93144.97;;;16.85;89.87
7768;BME280;3928;42.626;23.382;2022-12-10T11:58:41;93161.28;;;17.02;87.77
7768;BME280;3928;42.626;23.382;2022-12-10T12:01:20;93162.13;;;16.58;90.21
7768;BME280;3928;42.626;23.382;2022-12-10T12:04:03;93160.88;;;16.19;92.03
7768;BME280;3928;42.626;23.382;2022-12-10T12:06:51;93155.31;;;16.41;91.15
7768;BME280;3928;42.626;23.382;2022-12-10T12:09:28;93149.88;;;16.46;90.60
7768;BME280;3928;42.626;23.382;2022-12-10T12:12:11;93143.72;;;16.62;90.48
7768;BME280;3928;42.626;23.382;2022-12-10T12:14:43;93154.88;;;16.49;90.23
7768;BME280;3928;42.626;23.382;2022-12-10T12:17:17;93161.97;;;16.45;90.69
7768;BME280;3928;42.626;23.382;2022-12-10T12:19:50;93146.09;;;16.51;90.57
7768;BME280;3928;42.626;23.382;2022-12-10T12:22:23;93150.50;;;16.19;91.62
7768;BME280;3928;42.626;23.382;2022-12-10T12:24:54;93157.81;;;15.97;93.13
7768;BME280;3928;42.626;23.382;2022-12-10T12:27:27;93139.69;;;15.97;93.69
7768;BME280;3928;42.626;23.382;2022-12-10T12:30:02;93133.53;;;15.99;93.60
7768;BME280;3928;42.626;23.382;2022-12-10T12:32:34;93121.59;;;15.97;93.11
7768;BME280;3928;42.626;23.382;2022-12-10T12:35:09;93111.13;;;16.14;93.20
7768;BME280;3928;42.626;23.382;2022-12-10T12:37:41;93104.97;;;16.01;92.90
7768;BME280;3928;42.626;23.382;2022-12-10T12:40:13;93112.69;;;15.87;93.46
7768;BME280;3928;42.626;23.382;2022-12-10T12:42:49;93110.16;;;16.01;93.20
7768;BME280;3928;42.626;23.382;2022-12-10T12:45:24;93092.09;;;16.15;92.55
7768;BME280;3928;42.626;23.382;2022-12-10T12:48:01;93085.06;;;16.17;92.02
7768;BME280;3928;42.626;23.382;2022-12-10T12:50:42;93072.69;;;16.22;91.58
7768;BME280;3928;42.626;23.382;2022-12-10T12:53:11;93084.16;;;16.32;91.21
7768;BME280;3928;42.626;23.382;2022-12-10T12:55:46;93079.56;;;16.37;90.83
7768;BME280;3928;42.626;23.382;2022-12-10T12:58:27;93082.72;;;16.43;90.48
7768;BME280;3928;42.626;23.382;2022-12-10T13:01:00;93083.00;;;16.38;90.63
7768;BME280;3928;42.626;23.382;2022-12-10T13:03:35;93059.94;;;16.33;90.80
7768;BME280;3928;42.626;23.382;2022-12-10T13:06:17;93079.88;;;16.17;91.56
7768;BME280;3928;42.626;23.382;2022-12-10T13:08:45;93063.44;;;16.18;91.82
7768;BME280;3928;42.626;23.382;2022-12-10T13:11:18;93083.34;;;16.02;92.15
7768;BME280;3928;42.626;23.382;2022-12-10T13:14:11;93051.38;;;16.03;92.25
7768;BME280;3928;42.626;23.382;2022-12-10T13:19:43;93101.50;;;15.39;96.83
7768;BME280;3928;42.626;23.382;2022-12-10T13:22:12;93082.13;;;15.14;98.06
7768;BME280;3928;42.626;23.382;2022-12-10T13:25:13;93096.31;;;15.23;97.42
7768;BME280;3928;42.626;23.382;2022-12-10T13:27:41;93030.22;;;15.35;96.04
7768;BME280;3928;42.626;23.382;2022-12-10T13:30:28;93029.03;;;15.56;95.87